Time;durP1;ratioP1;P1;durP2;ratioP2;P2;SDS_P1;SDS_P2;PMS_P1;PMS_P2;Temp;Humidity;BMP_temperature;BMP_pressure;BME280_temperature;BME280_humidity;BME280_pressure;Samples;Min_cycle;Max_cycle;Signal;HPM_P1;HPM_P2
2022/10/20 05:58:17;;;;;;;3.92;2.67;;;;;;;;;;10529211;27;20484;-81
2022/10/20 06:03:18;;;;;;;4.30;2.63;;;;;;;;;;10496242;28;20119;-80
2022/10/20 06:08:22;;;;;;;3.55;2.85;;;;;;;;;;10494224;28;20029;-81
2022/10/20 06:13:23;;;;;;;4.57;2.40;;;;;;;;;;10496106;28;20021;-81
2022/10/20 06:18:24;;;;;;;;;;;;;;;;;;10501655;28;20037;-81
2022/10/20 06:23:25;;;;;;;2.30;2.10;;;;;;;;;;10500693;28;19908;-82
2022/10/20 06:28:29;;;;;;;2.60;2.05;;;;;;;;;;10501375;28;20094;-80
2022/10/20 06:33:30;;;;;;;4.68;3.50;;;;;;;;;;10503929;28;20025;-81
2022/10/20 06:38:31;;;;;;;4.65;3.97;;;;;;;;;;10528523;28;20107;-81
2022/10/20 06:43:33;;;;;;;3.40;2.70;;;;;;;;;;10522831;28;20029;-81
2022/10/20 06:48:34;;;;;;;3.72;2.35;;;;;;;;;;10511366;28;20021;-82
2022/10/20 06:53:35;;;;;;;2.88;2.00;;;;;;;;;;10505070;28;20123;-82
2022/10/20 06:58:37;;;;;;;2.67;2.10;;;;;;;;;;10507791;28;20045;-81
2022/10/20 07:03:38;;;;;;;4.25;2.45;;;;;;;;;;10519010;28;20063;-82
2022/10/20 07:08:39;;;;;;;3.60;2.33;;;;;;;;;;10514658;28;20040;-81
2022/10/20 07:13:40;;;;;;;3.55;2.50;;;;;;;;;;10511342;28;20028;-80
2022/10/20 07:18:41;;;;;;;3.72;3.10;;;;;;;;;;10511391;28;20013;-81
2022/10/20 07:23:43;;;;;;;3.72;2.88;;;;;;;;;;10511477;28;20029;-79
2022/10/20 07:28:46;;;;;;;3.70;2.97;;;;;;;;;;10509205;28;20411;-80
2022/10/20 07:33:47;;;;;;;3.25;2.90;;;;;;;;;;10507969;28;20037;-81
2022/10/20 07:38:48;;;;;;;8.43;7.05;;;;;;;;;;10510848;28;20025;-81
2022/10/20 07:43:50;;;;;;;9.00;7.82;;;;;;;;;;10507725;28;20048;-81
2022/10/20 07:48:51;;;;;;;11.13;8.65;;;;;;;;;;10508425;28;20013;-78
2022/10/20 07:53:54;;;;;;;11.27;9.02;;;;;;;;;;10509870;28;20089;-81
2022/10/20 07:58:55;;;;;;;10.52;8.68;;;;;;;;;;10509003;28;20029;-81
2022/10/20 08:03:56;;;;;;;10.15;8.27;;;;;;;;;;10481909;28;20033;-81
2022/10/20 08:08:58;;;;;;;11.18;9.75;;;;;;;;;;10468218;22;20458;-83
2022/10/20 08:14:00;;;;;;;10.63;8.45;;;;;;;;;;10423618;28;20040;-83
2022/10/20 08:19:01;;;;;;;8.43;7.50;;;;;;;;;;10425669;28;20083;-83
2022/10/20 08:24:02;;;;;;;9.98;6.78;;;;;;;;;;10426098;28;20390;-83
2022/10/20 08:29:03;;;;;;;9.27;6.13;;;;;;;;;;10424742;28;20475;-83
2022/10/20 08:34:10;;;;;;;7.57;5.82;;;;;;;;;;10425799;28;20025;-83
2022/10/20 08:39:16;;;;;;;5.38;4.85;;;;;;;;;;10427033;28;20120;-83
2022/10/20 08:44:23;;;;;;;6.25;5.25;;;;;;;;;;10428078;28;20029;-83
2022/10/20 08:49:25;;;;;;;9.60;5.00;;;;;;;;;;10429717;28;20033;-82
2022/10/20 08:54:33;;;;;;;8.75;6.05;;;;;;;;;;10444148;28;20044;-83
2022/10/20 08:59:37;;;;;;;5.45;4.53;;;;;;;;;;10465474;28;20026;-84
2022/10/20 09:05:01;;;;;;;8.63;5.22;;;;;;;;;;10457401;28;20042;-83
2022/10/20 09:10:02;;;;;;;6.35;4.63;;;;;;;;;;10445368;28;20423;-84
2022/10/20 09:15:04;;;;;;;6.35;4.72;;;;;;;;;;10423554;28;20049;-84
2022/10/20 09:20:06;;;;;;;8.05;5.32;;;;;;;;;;10424741;28;20033;-84
2022/10/20 09:25:12;;;;;;;7.43;5.18;;;;;;;;;;10422117;28;20091;-84
2022/10/20 09:30:14;;;;;;;5.40;4.03;;;;;;;;;;10422896;28;20085;-83
2022/10/20 09:35:21;;;;;;;9.50;5.55;;;;;;;;;;10423000;28;20117;-83
2022/10/20 09:40:23;;;;;;;10.05;6.20;;;;;;;;;;10420979;28;20029;-83
2022/10/20 09:45:34;;;;;;;7.32;5.88;;;;;;;;;;10420927;28;20112;-83
2022/10/20 09:50:37;;;;;;;6.30;4.43;;;;;;;;;;10422571;28;20045;-83
2022/10/20 09:55:41;;;;;;;5.70;4.30;;;;;;;;;;10437713;28;20025;-82
2022/10/20 10:00:48;;;;;;;5.95;5.32;;;;;;;;;;10446657;28;20033;-82
2022/10/20 10:05:52;;;;;;;6.75;4.90;;;;;;;;;;10430277;28;20034;-82
2022/10/20 10:11:01;;;;;;;12.25;9.10;;;;;;;;;;10448761;28;20064;-82
2022/10/20 10:16:09;;;;;;;8.85;5.82;;;;;;;;;;10449060;28;20394;-82
2022/10/20 10:21:12;;;;;;;6.88;4.50;;;;;;;;;;10433801;28;20032;-83
2022/10/20 10:26:32;;;;;;;6.15;4.93;;;;;;;;;;10438901;28;20033;-82
2022/10/20 10:31:34;;;;;;;7.43;5.23;;;;;;;;;;10430605;28;20035;-83
2022/10/20 10:36:37;;;;;;;4.15;3.63;;;;;;;;;;10423034;28;20120;-83
2022/10/20 10:41:56;;;;;;;6.40;4.60;;;;;;;;;;10424881;28;20123;-83
2022/10/20 10:47:27;;;;;;;7.00;5.50;;;;;;;;;;10430840;28;20092;-83
2022/10/20 10:52:52;;;;;;;9.55;5.85;;;;;;;;;;10433961;28;20081;-83
2022/10/20 10:57:56;;;;;;;7.40;5.38;;;;;;;;;;10444716;28;20053;-83
2022/10/20 11:02:59;;;;;;;6.00;4.53;;;;;;;;;;10442952;28;20033;-84
2022/10/20 11:08:03;;;;;;;8.05;5.50;;;;;;;;;;10435177;28;20087;-84
2022/10/20 11:13:17;;;;;;;5.05;3.45;;;;;;;;;;10439328;28;20448;-86
2022/10/20 11:18:36;;;;;;;5.00;4.00;;;;;;;;;;10436683;28;20025;-86
2022/10/20 11:23:56;;;;;;;4.07;3.67;;;;;;;;;;10440020;28;20029;-86
2022/10/20 11:28:57;;;;;;;3.53;2.60;;;;;;;;;;10432678;28;20061;-86
2022/10/20 11:34:18;;;;;;;5.13;3.50;;;;;;;;;;10435162;28;20079;-86
2022/10/20 11:39:40;;;;;;;6.40;4.25;;;;;;;;;;10434827;28;20089;-86
2022/10/20 11:44:43;;;;;;;5.53;4.45;;;;;;;;;;10437214;28;20044;-87
2022/10/20 11:49:46;;;;;;;7.15;4.13;;;;;;;;;;10434775;28;20072;-85
2022/10/20 11:54:56;;;;;;;8.02;4.20;;;;;;;;;;10451158;28;20332;-85
2022/10/20 12:00:04;;;;;;;7.07;4.40;;;;;;;;;;10456907;28;20029;-85
2022/10/20 12:05:39;;;;;;;7.22;5.18;;;;;;;;;;10455558;28;20056;-84
2022/10/20 12:10:49;;;;;;;7.30;4.65;;;;;;;;;;10456247;28;20037;-84
2022/10/20 12:15:52;;;;;;;6.28;4.18;;;;;;;;;;10447876;28;20021;-85
2022/10/20 12:20:55;;;;;;;8.45;4.80;;;;;;;;;;10432813;28;20100;-85
2022/10/20 12:25:56;;;;;;;6.40;3.95;;;;;;;;;;10431054;28;20034;-86
2022/10/20 12:30:58;;;;;;;8.25;4.53;;;;;;;;;;10429971;28;20022;-85
2022/10/20 12:36:13;;;;;;;12.05;5.88;;;;;;;;;;10429132;28;20111;-84
2022/10/20 12:41:32;;;;;;;5.70;4.07;;;;;;;;;;10430735;28;20025;-84
2022/10/20 12:46:42;;;;;;;6.95;5.05;;;;;;;;;;10429760;28;20136;-83
2022/10/20 12:51:49;;;;;;;5.20;4.18;;;;;;;;;;10429347;28;20164;-84
2022/10/20 12:56:51;;;;;;;7.85;5.55;;;;;;;;;;10429450;28;20389;-84
2022/10/20 13:02:10;;;;;;;6.40;4.05;;;;;;;;;;10429474;28;20029;-85
2022/10/20 13:07:11;;;;;;;8.95;4.97;;;;;;;;;;10428045;28;20026;-86
2022/10/20 13:12:35;;;;;;;6.50;4.80;;;;;;;;;;10429477;28;20036;-85
2022/10/20 13:18:06;;;;;;;7.90;4.63;;;;;;;;;;10423561;28;20117;-85
2022/10/20 13:23:14;;;;;;;8.13;4.85;;;;;;;;;;10422180;28;20030;-86
2022/10/20 13:28:34;;;;;;;8.27;5.15;;;;;;;;;;10426766;28;20036;-86
2022/10/20 13:33:44;;;;;;;6.83;4.90;;;;;;;;;;10424458;28;20084;-86
2022/10/20 13:39:00;;;;;;;8.27;5.70;;;;;;;;;;10425542;28;20090;-86
2022/10/20 13:44:11;;;;;;;7.70;5.53;;;;;;;;;;10427324;28;20037;-85
2022/10/20 13:49:30;;;;;;;8.68;6.43;;;;;;;;;;10425278;28;20026;-85
2022/10/20 13:54:33;;;;;;;9.18;5.55;;;;;;;;;;10426486;28;20041;-86
2022/10/20 13:59:36;;;;;;;9.13;5.30;;;;;;;;;;10425830;28;20037;-85
2022/10/20 14:04:37;;;;;;;8.50;5.18;;;;;;;;;;10426405;28;20070;-85
2022/10/20 14:09:45;;;;;;;7.68;5.30;;;;;;;;;;10432227;28;20033;-84
2022/10/20 14:14:46;;;;;;;6.90;5.00;;;;;;;;;;10437585;28;20037;-84
2022/10/20 14:19:47;;;;;;;8.02;5.30;;;;;;;;;;10447164;28;20029;-83
2022/10/20 14:24:51;;;;;;;8.07;6.65;;;;;;;;;;10443847;28;20044;-80
2022/10/20 14:29:52;;;;;;;12.63;6.47;;;;;;;;;;10440111;28;20043;-82
2022/10/20 14:34:55;;;;;;;7.30;5.55;;;;;;;;;;10431995;28;20183;-81
2022/10/20 14:40:04;;;;;;;12.00;7.07;;;;;;;;;;10432227;28;20030;-81
2022/10/20 14:45:06;;;;;;;8.40;5.30;;;;;;;;;;10432189;28;20403;-83
2022/10/20 14:50:18;;;;;;;7.75;5.25;;;;;;;;;;10431822;28;20017;-82
2022/10/20 14:55:38;;;;;;;6.97;5.38;;;;;;;;;;10430865;28;20041;-81
2022/10/20 15:00:39;;;;;;;8.40;5.75;;;;;;;;;;10430726;28;20513;-82
2022/10/20 15:05:43;;;;;;;8.18;5.18;;;;;;;;;;10434069;28;20112;-82
2022/10/20 15:10:44;;;;;;;7.07;5.28;;;;;;;;;;10436640;28;20372;-81
2022/10/20 15:15:46;;;;;;;7.57;6.18;;;;;;;;;;10437945;28;20025;-82
2022/10/20 15:20:47;;;;;;;7.28;5.70;;;;;;;;;;10435684;28;20111;-81
2022/10/20 15:25:53;;;;;;;7.65;5.50;;;;;;;;;;10440979;28;20021;-82
2022/10/20 15:30:55;;;;;;;7.25;5.32;;;;;;;;;;10435013;28;20108;-81
2022/10/20 15:35:59;;;;;;;6.88;5.07;;;;;;;;;;10435113;28;20040;-81
2022/10/20 15:41:00;;;;;;;8.45;5.70;;;;;;;;;;10437051;28;20048;-80
2022/10/20 15:46:02;;;;;;;7.82;4.82;;;;;;;;;;10433722;28;20059;-80
2022/10/20 15:51:05;;;;;;;7.18;4.70;;;;;;;;;;10433262;28;20082;-82
2022/10/20 15:56:21;;;;;;;7.63;5.38;;;;;;;;;;10434612;28;20487;-81
2022/10/20 16:01:22;;;;;;;9.68;6.35;;;;;;;;;;10437788;28;20164;-81
2022/10/20 16:06:25;;;;;;;8.02;5.90;;;;;;;;;;10438925;28;20155;-82
2022/10/20 16:11:50;;;;;;;7.50;5.10;;;;;;;;;;10440759;28;20029;-82
2022/10/20 18:50:24;;;;;;;9.07;6.32;;;;;;;;;;10490706;28;20059;-85
2022/10/20 18:56:01;;;;;;;11.63;6.25;;;;;;;;;;10489815;28;20544;-86
2022/10/20 19:01:28;;;;;;;7.70;6.15;;;;;;;;;;10420564;28;20097;-86
2022/10/20 19:13:03;;;;;;;;;;;;;;;;;;;;;
